Time;durP1;ratioP1;P1;durP2;ratioP2;P2;SDS_P1;SDS_P2;PMS_P1;PMS_P2;Temp;Humidity;BMP_temperature;BMP_pressure;BME280_temperature;BME280_humidity;BME280_pressure;Samples;Min_cycle;Max_cycle;Signal;HPM_P1;HPM_P2
2022/05/13 00:00:36;;;;;;;;;;;21.80;62.40;;;;;;5128514;28;19934;-46
2022/05/13 00:03:02;;;;;;;;;;;20.90;59.80;;;;;;5123308;28;20431;-49
2022/05/13 00:05:27;;;;;;;;;;;20.30;58.00;;;;;;5123132;28;19957;-47
2022/05/13 00:07:53;;;;;;;;;;;20.10;56.50;;;;;;5129049;28;19923;-45
2022/05/13 00:10:19;;;;;;;;;;;20.00;55.30;;;;;;5123648;28;19995;-46
2022/05/13 00:12:45;;;;;;;;;;;19.80;56.00;;;;;;5124680;28;19927;-54
2022/05/13 00:15:12;;;;;;;;;;;20.50;61.70;;;;;;5124648;28;20367;-45
2022/05/13 00:17:38;;;;;;;;;;;21.20;63.30;;;;;;5122524;28;20340;-45
2022/05/13 00:20:04;;;;;;;;;;;21.80;62.40;;;;;;5128405;28;19923;-48
2022/05/13 00:22:30;;;;;;;;;;;20.80;60.00;;;;;;5103256;28;19947;-49
2022/05/13 00:24:56;;;;;;;;;;;20.20;58.20;;;;;;5122721;27;20249;-46
2022/05/13 00:27:22;;;;;;;;;;;20.00;56.30;;;;;;5128223;28;19985;-44
2022/05/13 00:29:48;;;;;;;;;;;19.80;55.90;;;;;;5123050;28;19934;-48
2022/05/13 00:32:14;;;;;;;;;;;19.80;57.50;;;;;;5120342;28;19927;-46
2022/05/13 00:34:39;;;;;;;;;;;20.60;62.70;;;;;;5127118;28;19965;-47
2022/05/13 00:37:05;;;;;;;;;;;21.30;64.00;;;;;;5122569;28;19928;-45
2022/05/13 00:39:31;;;;;;;;;;;21.50;61.90;;;;;;5128202;28;20375;-45
2022/05/13 00:42:07;;;;;;;;;;;20.60;59.40;;;;;;5122632;28;19924;-44
2022/05/13 00:44:32;;;;;;;;;;;20.00;57.70;;;;;;5122891;28;20299;-46
2022/05/13 00:46:58;;;;;;;;;;;19.80;56.30;;;;;;5128387;28;19953;-46
2022/05/13 00:49:24;;;;;;;;;;;19.80;56.90;;;;;;5102929;28;20358;-49
2022/05/13 00:51:50;;;;;;;;;;;20.50;62.60;;;;;;5120404;28;19950;-46
2022/05/13 00:54:16;;;;;;;;;;;21.20;63.60;;;;;;5127484;28;20010;-47
2022/05/13 00:56:45;;;;;;;;;;;21.70;62.00;;;;;;5122113;28;20022;-46
2022/05/13 00:59:12;;;;;;;;;;;20.70;59.90;;;;;;5125398;28;20418;-55
2022/05/13 01:01:38;;;;;;;;;;;20.20;57.80;;;;;;5125725;28;20276;-45
2022/05/13 01:04:04;;;;;;;;;;;19.90;56.90;;;;;;5122536;28;19931;-50
2022/05/13 01:06:30;;;;;;;;;;;19.70;55.90;;;;;;5107805;28;20313;-46
2022/05/13 01:08:56;;;;;;;;;;;20.20;61.40;;;;;;5101007;28;19924;-48
2022/05/13 01:11:23;;;;;;;;;;;21.00;63.80;;;;;;5120938;28;19973;-45
2022/05/13 01:13:50;;;;;;;;;;;21.60;63.40;;;;;;5127509;28;19971;-45
2022/05/13 01:16:16;;;;;;;;;;;21.40;60.80;;;;;;5101829;28;19951;-46
2022/05/13 01:18:43;;;;;;;;;;;20.50;58.90;;;;;;5121861;28;19931;-45
2022/05/13 01:21:09;;;;;;;;;;;20.30;57.40;;;;;;5127482;28;20357;-46
2022/05/13 01:23:44;;;;;;;;;;;20.00;56.10;;;;;;5121944;28;20449;-45
2022/05/13 01:26:11;;;;;;;;;;;19.80;55.80;;;;;;5126269;28;19956;-52
2022/05/13 01:28:38;;;;;;;;;;;20.30;61.20;;;;;;5101070;28;20451;-46
2022/05/13 01:31:05;;;;;;;;;;;21.00;63.70;;;;;;5121564;28;20026;-46
2022/05/13 01:33:31;;;;;;;;;;;21.70;63.50;;;;;;5127075;28;20014;-45
2022/05/13 01:35:57;;;;;;;;;;;20.80;60.80;;;;;;5121820;28;19923;-45
2022/05/13 01:38:24;;;;;;;;;;;20.20;58.90;;;;;;5102839;28;20045;-46
2022/05/13 01:40:50;;;;;;;;;;;20.00;56.90;;;;;;5127573;28;19927;-48
2022/05/13 01:43:16;;;;;;;;;;;19.80;56.20;;;;;;5122089;28;19931;-46
2022/05/13 01:45:42;;;;;;;;;;;20.10;59.70;;;;;;5120357;28;19930;-53
2022/05/13 01:48:08;;;;;;;;;;;20.80;64.00;;;;;;5125152;28;20383;-45
2022/05/13 01:50:34;;;;;;;;;;;21.50;64.20;;;;;;5121750;28;19934;-50
2022/05/13 01:53:00;;;;;;;;;;;21.30;61.60;;;;;;5127027;28;19930;-44
2022/05/13 01:55:26;;;;;;;;;;;20.30;59.70;;;;;;5121475;28;19931;-44
2022/05/13 01:57:51;;;;;;;;;;;20.00;58.00;;;;;;5121451;28;19923;-45
2022/05/13 02:00:17;;;;;;;;;;;19.90;56.40;;;;;;5126936;28;19930;-45
2022/05/13 02:05:27;;;;;;;;;;;20.30;61.70;;;;;;5119322;28;19923;-47
2022/05/13 02:07:53;;;;;;;;;;;21.20;64.30;;;;;;5126525;28;20435;-44
2022/05/13 02:10:19;;;;;;;;;;;21.70;63.90;;;;;;5121218;28;19928;-45
2022/05/13 02:12:44;;;;;;;;;;;20.70;61.00;;;;;;5123896;28;19934;-54
2022/05/13 02:15:10;;;;;;;;;;;20.30;58.90;;;;;;5124399;28;19930;-45
2022/05/13 02:17:36;;;;;;;;;;;20.10;57.10;;;;;;5103000;28;20195;-45
2022/05/13 02:20:05;;;;;;;;;;;19.70;56.60;;;;;;5126704;28;19938;-48
2022/05/13 02:22:31;;;;;;;;;;;20.10;59.50;;;;;;5118327;28;20377;-47
2022/05/13 02:24:57;;;;;;;;;;;20.80;64.00;;;;;;5120250;28;19924;-50
2022/05/13 02:27:22;;;;;;;;;;;21.40;64.60;;;;;;5126309;28;20427;-47
2022/05/13 02:29:48;;;;;;;;;;;21.40;62.40;;;;;;5121239;28;19923;-45
2022/05/13 02:32:14;;;;;;;;;;;20.50;59.90;;;;;;5120908;28;19972;-46
2022/05/13 02:34:40;;;;;;;;;;;20.00;58.70;;;;;;5126429;28;19931;-45
2022/05/13 02:37:06;;;;;;;;;;;19.90;56.50;;;;;;5121039;28;20336;-45
2022/05/13 02:39:32;;;;;;;;;;;19.70;56.10;;;;;;5106955;28;20517;-46
2022/05/13 02:41:57;;;;;;;;;;;20.20;61.30;;;;;;5118704;28;20299;-48
2022/05/13 02:44:23;;;;;;;;;;;20.90;64.30;;;;;;5120208;28;19931;-48
2022/05/13 02:46:49;;;;;;;;;;;21.60;64.20;;;;;;5126077;28;19931;-46
2022/05/13 02:49:15;;;;;;;;;;;21.10;61.50;;;;;;5119726;27;19928;-47
2022/05/13 02:51:41;;;;;;;;;;;20.30;59.60;;;;;;5120927;28;19924;-48
2022/05/13 02:54:07;;;;;;;;;;;20.00;57.70;;;;;;5126202;28;19927;-46
2022/05/13 02:56:33;;;;;;;;;;;19.80;56.70;;;;;;5120403;28;19934;-48
2022/05/13 02:58:59;;;;;;;;;;;20.00;59.70;;;;;;5123783;28;20435;-47
2022/05/13 03:01:25;;;;;;;;;;;20.70;64.30;;;;;;5119231;28;19931;-51
2022/05/13 03:03:50;;;;;;;;;;;21.30;65.00;;;;;;5120513;28;19932;-48
2022/05/13 03:06:17;;;;;;;;;;;21.50;62.80;;;;;;5125754;28;19931;-46
2022/05/13 03:08:42;;;;;;;;;;;20.50;60.40;;;;;;5120217;28;20067;-49
2022/05/13 03:11:08;;;;;;;;;;;20.10;58.30;;;;;;5120367;28;20390;-46
2022/05/13 03:13:34;;;;;;;;;;;19.80;57.00;;;;;;5126043;28;19928;-47
2022/05/13 03:16:07;;;;;;;;;;;20.00;58.30;;;;;;5119711;28;20022;-47
2022/05/13 03:18:32;;;;;;;;;;;20.60;64.10;;;;;;5120897;28;19983;-58
2022/05/13 03:20:58;;;;;;;;;;;21.30;65.10;;;;;;5122818;28;19927;-46
2022/05/13 03:23:24;;;;;;;;;;;21.60;63.20;;;;;;5120001;28;19936;-45
2022/05/13 03:25:50;;;;;;;;;;;20.60;60.50;;;;;;5125761;28;19966;-46
2022/05/13 03:28:16;;;;;;;;;;;20.20;58.50;;;;;;5120104;28;19923;-44
2022/05/13 03:30:41;;;;;;;;;;;20.00;56.90;;;;;;5120129;28;19923;-44
2022/05/13 03:33:07;;;;;;;;;;;19.80;56.20;;;;;;5107398;28;19934;-45
2022/05/13 03:35:33;;;;;;;;;;;20.30;60.70;;;;;;5118028;28;19959;-50
2022/05/13 03:37:59;;;;;;;;;;;20.90;64.40;;;;;;5119414;28;20302;-56
2022/05/13 03:40:24;;;;;;;;;;;21.50;64.60;;;;;;5125041;28;19980;-46
2022/05/13 03:42:50;;;;;;;;;;;21.30;62.00;;;;;;5120058;28;19924;-49
2022/05/13 03:45:16;;;;;;;;;;;20.50;59.80;;;;;;5125374;28;19923;-47
2022/05/13 03:47:42;;;;;;;;;;;20.20;57.80;;;;;;5120069;28;20362;-45
2022/05/13 03:50:08;;;;;;;;;;;19.90;56.50;;;;;;5120310;28;20294;-44
2022/05/13 03:52:34;;;;;;;;;;;19.80;55.70;;;;;;5125188;28;19924;-46
2022/05/13 03:55:00;;;;;;;;;;;20.30;61.60;;;;;;5117274;28;20038;-46
2022/05/13 03:57:26;;;;;;;;;;;21.00;64.50;;;;;;5118933;28;19938;-47
2022/05/13 03:59:53;;;;;;;;;;;21.60;64.20;;;;;;5125950;27;19923;-48
2022/05/13 04:02:19;;;;;;;;;;;21.00;61.00;;;;;;5123755;28;19927;-47
2022/05/13 04:10:13;;;;;;;;;;;19.80;56.00;;;;;;5123305;28;20438;-45
2022/05/13 04:18:15;;;;;;;;;;;21.70;64.10;;;;;;5123123;28;19942;-46
2022/05/13 04:20:41;;;;;;;;;;;20.80;61.00;;;;;;5123129;28;20417;-45
2022/05/13 04:23:07;;;;;;;;;;;20.30;58.60;;;;;;5128145;28;19930;-45
2022/05/13 04:25:33;;;;;;;;;;;20.00;57.00;;;;;;5123255;28;19923;-44
2022/05/13 04:27:58;;;;;;;;;;;19.80;56.20;;;;;;5128757;28;19970;-46
2022/05/13 04:30:24;;;;;;;;;;;20.30;61.60;;;;;;5121021;28;19923;-46
2022/05/13 04:32:50;;;;;;;;;;;21.00;64.50;;;;;;5121254;28;20382;-46
2022/05/13 04:35:16;;;;;;;;;;;21.60;64.30;;;;;;5128070;28;19935;-44
2022/05/13 04:37:42;;;;;;;;;;;21.00;61.40;;;;;;5122716;28;19931;-44
2022/05/13 04:40:08;;;;;;;;;;;20.40;59.10;;;;;;5122797;28;20007;-47
2022/05/13 04:42:52;;;;;;;;;;;20.00;57.10;;;;;;5127925;28;20010;-46
2022/05/13 04:45:23;;;;;;;;;;;19.90;56.00;;;;;;5122577;28;19924;-45
2022/05/13 04:50:41;;;;;;;;;;;20.70;63.60;;;;;;5126095;28;19930;-44
2022/05/13 04:53:07;;;;;;;;;;;21.50;64.20;;;;;;5122175;28;19923;-45
2022/05/13 04:55:33;;;;;;;;;;;21.30;61.90;;;;;;5122218;28;20022;-44
2022/05/13 04:57:58;;;;;;;;;;;20.50;59.50;;;;;;5127800;28;19934;-46
2022/05/13 05:00:24;;;;;;;;;;;20.10;57.90;;;;;;5122099;28;19924;-46
2022/05/13 05:02:50;;;;;;;;;;;20.00;56.40;;;;;;5109771;28;19931;-47
2022/05/13 05:05:16;;;;;;;;;;;20.00;57.00;;;;;;5122862;28;19923;-45
2022/05/13 05:07:42;;;;;;;;;;;20.50;63.20;;;;;;5101631;28;19976;-49
2022/05/13 05:10:08;;;;;;;;;;;21.20;64.40;;;;;;5126709;28;20030;-46
2022/05/13 05:12:34;;;;;;;;;;;21.60;62.70;;;;;;5121319;27;19924;-45
2022/05/13 05:15:00;;;;;;;;;;;20.50;60.30;;;;;;5122359;28;19991;-46
2022/05/13 05:17:25;;;;;;;;;;;20.00;58.20;;;;;;5127618;28;19963;-44
2022/05/13 05:19:51;;;;;;;;;;;20.00;56.70;;;;;;5122099;28;19934;-48
2022/05/13 05:22:17;;;;;;;;;;;20.10;60.30;;;;;;5127814;28;19923;-48
2022/05/13 05:24:43;;;;;;;;;;;20.90;63.90;;;;;;5121417;28;19924;-48
2022/05/13 05:27:10;;;;;;;;;;;21.50;64.00;;;;;;5119759;28;19927;-45
2022/05/13 05:29:36;;;;;;;;;;;21.10;61.10;;;;;;5126688;28;19923;-46
2022/05/13 05:32:02;;;;;;;;;;;20.30;59.10;;;;;;5121848;28;19924;-46
2022/05/13 05:34:28;;;;;;;;;;;20.10;57.30;;;;;;5122024;28;19937;-44
2022/05/13 05:36:54;;;;;;;;;;;19.80;56.10;;;;;;5127114;28;20282;-46
2022/05/13 05:39:20;;;;;;;;;;;20.40;62.40;;;;;;5121724;28;20398;-45
2022/05/13 05:41:46;;;;;;;;;;;21.10;64.40;;;;;;5125038;28;19935;-55
2022/05/13 05:44:11;;;;;;;;;;;21.70;63.70;;;;;;5122675;28;20688;-47
2022/05/13 05:46:37;;;;;;;;;;;21.00;61.00;;;;;;5120448;28;19924;-47
2022/05/13 05:49:04;;;;;;;;;;;20.40;58.80;;;;;;5126862;28;19923;-45
2022/05/13 05:51:30;;;;;;;;;;;20.10;57.10;;;;;;5121635;28;19930;-44
2022/05/13 05:59:25;;;;;;;;;;;20.40;62.70;;;;;;5121590;28;20032;-49
2022/05/13 06:01:51;;;;;;;;;;;21.20;64.00;;;;;;5101771;28;20392;-47
2022/05/13 06:04:16;;;;;;;;;;;21.70;62.30;;;;;;5105278;28;19966;-46
2022/05/13 06:06:43;;;;;;;;;;;20.70;60.00;;;;;;5120949;28;19931;-45
2022/05/13 06:09:09;;;;;;;;;;;20.30;57.80;;;;;;5121324;28;20172;-45
2022/05/13 06:11:37;;;;;;;;;;;19.90;56.90;;;;;;5108505;28;20037;-47
2022/05/13 06:14:03;;;;;;;;;;;19.80;56.70;;;;;;5121063;28;19924;-47
2022/05/13 06:16:29;;;;;;;;;;;20.50;62.20;;;;;;5122887;28;19923;-48
2022/05/13 06:18:58;;;;;;;;;;;21.20;63.50;;;;;;5121643;28;19938;-45
2022/05/13 06:21:23;;;;;;;;;;;21.70;62.10;;;;;;5118643;28;19927;-46
2022/05/13 06:23:49;;;;;;;;;;;20.60;59.80;;;;;;5125355;27;19973;-47
2022/05/13 06:26:15;;;;;;;;;;;20.10;58.00;;;;;;5121046;28;19976;-47
2022/05/13 06:28:41;;;;;;;;;;;20.10;56.20;;;;;;5121175;28;19930;-47
2022/05/13 06:31:07;;;;;;;;;;;19.70;55.90;;;;;;5108155;28;19977;-47
2022/05/13 06:33:34;;;;;;;;;;;20.20;60.20;;;;;;5121101;28;20339;-47
2022/05/13 06:35:59;;;;;;;;;;;20.80;63.50;;;;;;5122935;28;19954;-51
2022/05/13 06:38:25;;;;;;;;;;;21.50;63.40;;;;;;5123515;28;19968;-45
2022/05/13 06:40:51;;;;;;;;;;;21.30;60.90;;;;;;5118647;28;19924;-47
2022/05/13 06:43:17;;;;;;;;;;;20.40;59.00;;;;;;5125764;28;19934;-45
2022/05/13 06:45:43;;;;;;;;;;;20.10;57.30;;;;;;5120649;28;20017;-46
2022/05/13 06:48:09;;;;;;;;;;;19.90;56.10;;;;;;5120748;28;20369;-45
2022/05/13 06:50:35;;;;;;;;;;;20.10;58.50;;;;;;5125842;28;19930;-46
2022/05/13 06:53:01;;;;;;;;;;;20.80;62.60;;;;;;5120717;28;20205;-45
2022/05/13 06:55:26;;;;;;;;;;;21.40;62.60;;;;;;5120917;28;19930;-46
2022/05/13 06:57:52;;;;;;;;;;;21.40;60.30;;;;;;5123688;28;19935;-50
2022/05/13 07:00:18;;;;;;;;;;;20.60;58.40;;;;;;5119281;28;19930;-44
2022/05/13 07:02:44;;;;;;;;;;;20.20;57.00;;;;;;5125698;28;19938;-46
2022/05/13 07:05:10;;;;;;;;;;;19.90;55.80;;;;;;5120602;28;19923;-49
2022/05/13 07:07:36;;;;;;;;;;;19.90;56.20;;;;;;5120497;28;20297;-47
2022/05/13 07:10:02;;;;;;;;;;;20.60;61.30;;;;;;5125790;28;19929;-46
2022/05/13 07:12:29;;;;;;;;;;;21.30;62.00;;;;;;5120467;28;19923;-46
2022/05/13 07:14:54;;;;;;;;;;;21.60;60.40;;;;;;5119769;28;20161;-44
2022/05/13 07:17:20;;;;;;;;;;;20.70;58.60;;;;;;5123505;28;20529;-44
2022/05/13 07:19:47;;;;;;;;;;;20.30;57.00;;;;;;5119808;28;19945;-45
2022/05/13 07:22:13;;;;;;;;;;;20.00;55.70;;;;;;5125541;28;19966;-44
2022/05/13 07:24:38;;;;;;;;;;;19.70;55.20;;;;;;5120375;28;19924;-49
2022/05/13 07:27:05;;;;;;;;;;;20.20;59.80;;;;;;5120169;28;19924;-47
2022/05/13 07:29:31;;;;;;;;;;;20.90;61.90;;;;;;5125797;28;20014;-45
2022/05/13 07:31:56;;;;;;;;;;;21.60;61.10;;;;;;5120555;28;19961;-45
2022/05/13 07:34:22;;;;;;;;;;;21.30;59.10;;;;;;5117969;27;20127;-50
2022/05/13 07:36:53;;;;;;;;;;;20.50;57.70;;;;;;5127446;28;19927;-46
2022/05/13 07:42:04;;;;;;;;;;;19.70;55.40;;;;;;5123756;28;20014;-52
2022/05/13 07:44:30;;;;;;;;;;;19.80;56.90;;;;;;5129156;28;19923;-45
2022/05/13 07:46:56;;;;;;;;;;;20.70;61.30;;;;;;5124034;28;20363;-46
2022/05/13 07:49:22;;;;;;;;;;;21.40;61.30;;;;;;5129260;28;19923;-45
2022/05/13 07:51:47;;;;;;;;;;;21.50;59.50;;;;;;5122353;28;19985;-50
2022/05/13 07:54:13;;;;;;;;;;;20.40;58.20;;;;;;5121168;28;19962;-46
2022/05/13 07:56:39;;;;;;;;;;;20.00;56.80;;;;;;5109908;28;20059;-46
2022/05/13 07:59:05;;;;;;;;;;;19.80;55.60;;;;;;5123184;28;20336;-46
2022/05/13 08:01:31;;;;;;;;;;;19.90;56.40;;;;;;5123634;28;19927;-45
2022/05/13 08:03:56;;;;;;;;;;;20.70;60.70;;;;;;5128840;28;20092;-46
2022/05/13 08:06:22;;;;;;;;;;;21.40;60.70;;;;;;5105032;28;19931;-44
2022/05/13 08:08:55;;;;;;;;;;;21.70;58.80;;;;;;5127722;28;19923;-55
2022/05/13 08:11:22;;;;;;;;;;;20.60;57.50;;;;;;5125297;28;19924;-51
2022/05/13 08:13:47;;;;;;;;;;;20.10;56.20;;;;;;5121784;28;20021;-46
2022/05/13 08:16:15;;;;;;;;;;;19.90;55.00;;;;;;5128335;28;20400;-48
2022/05/13 08:18:41;;;;;;;;;;;19.80;54.40;;;;;;5102625;28;19930;-46
2022/05/13 08:21:07;;;;;;;;;;;20.40;60.10;;;;;;5122776;28;19928;-48
2022/05/13 08:23:33;;;;;;;;;;;21.20;60.70;;;;;;5109853;28;19958;-45
2022/05/13 08:25:59;;;;;;;;;;;21.80;59.50;;;;;;5123166;28;19929;-47
2022/05/13 08:28:24;;;;;;;;;;;20.90;57.50;;;;;;5122437;28;20430;-51
2022/05/13 08:30:50;;;;;;;;;;;20.30;56.20;;;;;;5126101;28;19924;-45
2022/05/13 08:33:16;;;;;;;;;;;19.80;55.50;;;;;;5122346;28;20286;-48
2022/05/13 08:35:46;;;;;;;;;;;19.70;54.80;;;;;;5128333;28;20413;-46
2022/05/13 08:38:15;;;;;;;;;;;20.30;59.00;;;;;;5122884;28;19927;-44
2022/05/13 08:40:53;;;;;;;;;;;21.20;59.60;;;;;;5122724;28;20017;-44
2022/05/13 08:43:26;;;;;;;;;;;21.50;58.00;;;;;;5128443;28;20331;-45
2022/05/13 08:45:54;;;;;;;;;;;20.50;56.60;;;;;;5122221;27;19972;-48
2022/05/13 08:48:31;;;;;;;;;;;20.10;55.40;;;;;;5119334;28;19924;-45
2022/05/13 08:51:11;;;;;;;;;;;19.80;54.70;;;;;;5126951;28;20010;-46
2022/05/13 08:53:40;;;;;;;;;;;20.40;59.00;;;;;;5104207;28;19930;-46
2022/05/13 08:56:07;;;;;;;;;;;21.30;58.60;;;;;;5122610;28;19930;-45
2022/05/13 08:58:36;;;;;;;;;;;21.50;56.80;;;;;;5109558;28;19923;-45
2022/05/13 09:01:02;;;;;;;;;;;20.40;56.30;;;;;;5122558;28;19931;-44
2022/05/13 09:03:36;;;;;;;;;;;20.20;55.00;;;;;;5122572;28;20584;-45
2022/05/13 09:06:02;;;;;;;;;;;20.00;54.10;;;;;;5105839;28;20406;-50
2022/05/13 09:08:28;;;;;;;;;;;20.20;58.00;;;;;;5120621;28;19928;-51
2022/05/13 09:10:54;;;;;;;;;;;21.10;58.70;;;;;;5121932;28;19923;-50
2022/05/13 09:13:27;;;;;;;;;;;21.80;57.10;;;;;;5127572;28;19923;-44
2022/05/13 09:15:55;;;;;;;;;;;20.90;56.10;;;;;;5122091;28;19986;-48
2022/05/13 09:18:23;;;;;;;;;;;20.10;55.50;;;;;;5127610;28;20317;-45
2022/05/13 09:20:50;;;;;;;;;;;19.80;54.70;;;;;;5102316;28;19975;-46
2022/05/13 09:23:16;;;;;;;;;;;20.00;54.80;;;;;;5121583;28;19980;-48
2022/05/13 09:26:01;;;;;;;;;;;20.70;58.50;;;;;;5124704;28;19931;-45
2022/05/13 09:28:27;;;;;;;;;;;21.50;57.30;;;;;;5121344;28;20385;-47
2022/05/13 09:30:55;;;;;;;;;;;21.10;55.80;;;;;;5122019;28;19975;-45
2022/05/13 09:33:26;;;;;;;;;;;20.20;55.40;;;;;;5127470;28;19934;-45
2022/05/13 09:35:55;;;;;;;;;;;19.90;54.20;;;;;;5121890;28;19924;-46
2022/05/13 09:38:23;;;;;;;;;;;20.00;55.60;;;;;;5121818;28;19930;-46
2022/05/13 09:40:56;;;;;;;;;;;20.80;57.90;;;;;;5127652;28;20273;-45
2022/05/13 09:43:36;;;;;;;;;;;21.70;56.40;;;;;;5119423;28;20375;-45
2022/05/13 09:46:13;;;;;;;;;;;20.80;55.20;;;;;;5120598;28;20305;-48
2022/05/13 09:48:39;;;;;;;;;;;20.20;54.70;;;;;;5107379;28;20268;-47
2022/05/13 09:51:22;;;;;;;;;;;20.00;53.70;;;;;;5121911;28;20386;-46
2022/05/13 09:54:01;;;;;;;;;;;19.90;53.00;;;;;;5121429;28;19980;-48
2022/05/13 09:56:56;;;;;;;;;;;20.40;56.90;;;;;;5126926;28;19927;-44
2022/05/13 09:59:23;;;;;;;;;;;21.30;56.40;;;;;;5030160;28;19931;-44
2022/05/13 10:01:49;;;;;;;;;;;21.50;54.90;;;;;;5118866;28;19930;-49
2022/05/13 10:04:24;;;;;;;;;;;20.50;54.50;;;;;;5125796;28;19938;-46
2022/05/13 10:07:01;;;;;;;;;;;20.00;54.10;;;;;;5120960;28;19927;-45
2022/05/13 10:15:38;;;;;;;;;;;21.10;56.50;;;;;;5083509;28;20321;-46
2022/05/13 10:18:12;;;;;;;;;;;21.60;54.60;;;;;;5102551;28;19930;-46
2022/05/13 10:20:38;;;;;;;;;;;20.50;54.60;;;;;;5098265;28;19928;-43
2022/05/13 10:23:10;;;;;;;;;;;20.10;53.80;;;;;;5125520;28;19928;-45
2022/05/13 10:25:41;;;;;;;;;;;19.80;53.50;;;;;;5120875;28;19934;-45
2022/05/13 10:28:08;;;;;;;;;;;20.40;56.60;;;;;;5126540;28;19980;-52
2022/05/13 10:30:52;;;;;;;;;;;21.30;56.00;;;;;;5102918;28;19953;-48
2022/05/13 10:33:21;;;;;;;;;;;21.80;54.20;;;;;;5121020;28;19931;-46
2022/05/13 10:35:48;;;;;;;;;;;20.60;54.30;;;;;;5125989;28;21386;-44
2022/05/13 10:38:33;;;;;;;;;;;20.30;53.40;;;;;;5118515;28;19924;-47
2022/05/13 10:41:03;;;;;;;;;;;19.80;53.30;;;;;;5119713;28;20412;-46
2022/05/13 10:43:32;;;;;;;;;;;20.50;56.60;;;;;;5107719;28;19935;-45
2022/05/13 10:45:58;;;;;;;;;;;21.40;55.60;;;;;;5102302;28;20081;-46
2022/05/13 10:48:26;;;;;;;;;;;21.40;54.10;;;;;;5102333;28;19927;-49
2022/05/13 10:51:04;;;;;;;;;;;20.50;54.40;;;;;;5126252;28;20378;-45
2022/05/13 10:53:34;;;;;;;;;;;20.10;53.40;;;;;;5120775;28;20347;-44
2022/05/13 10:56:12;;;;;;;;;;;19.90;53.10;;;;;;5119138;28;20301;-52
2022/05/13 10:58:40;;;;;;;;;;;19.90;54.70;;;;;;5124188;28;20030;-47
2022/05/13 11:01:06;;;;;;;;;;;21.10;55.70;;;;;;5102071;28;20379;-46
2022/05/13 11:03:37;;;;;;;;;;;21.80;54.50;;;;;;5120486;28;19931;-46
2022/05/13 11:06:20;;;;;;;;;;;20.80;54.30;;;;;;5106521;28;19962;-46
2022/05/13 11:08:45;;;;;;;;;;;20.30;53.80;;;;;;5120416;27;20443;-46
2022/05/13 11:11:26;;;;;;;;;;;20.00;53.10;;;;;;5120126;28;19928;-44
2022/05/13 11:14:11;;;;;;;;;;;20.00;54.80;;;;;;5125047;28;19932;-50
2022/05/13 11:16:55;;;;;;;;;;;21.00;55.90;;;;;;5118172;28;19935;-45
2022/05/13 11:19:40;;;;;;;;;;;21.80;54.10;;;;;;5119821;28;19923;-46
2022/05/13 11:22:25;;;;;;;;;;;20.50;54.40;;;;;;5125624;28;20375;-45
2022/05/13 11:27:56;;;;;;;;;;;19.90;53.60;;;;;;5120355;28;20390;-48
2022/05/13 11:30:27;;;;;;;;;;;21.00;56.10;;;;;;5102081;28;19927;-44
2022/05/13 11:32:54;;;;;;;;;;;21.80;54.20;;;;;;5105812;28;20474;-49
2022/05/13 11:35:39;;;;;;;;;;;20.90;53.90;;;;;;5099986;28;20019;-47
2022/05/13 11:38:15;;;;;;;;;;;20.20;54.00;;;;;;5119557;28;19924;-46
2022/05/13 11:40:47;;;;;;;;;;;19.80;53.10;;;;;;5125419;28;19954;-47
2022/05/13 11:43:29;;;;;;;;;;;19.90;54.10;;;;;;5119789;28;20359;-46
2022/05/13 11:46:01;;;;;;;;;;;20.80;56.20;;;;;;5120211;28;19931;-46
2022/05/13 11:48:28;;;;;;;;;;;21.80;54.40;;;;;;5125760;28;19923;-47
2022/05/13 11:51:04;;;;;;;;;;;21.00;54.00;;;;;;5100413;28;20495;-47
2022/05/13 11:53:50;;;;;;;;;;;20.30;53.70;;;;;;5097421;28;19976;-46
2022/05/13 11:56:31;;;;;;;;;;;19.90;53.30;;;;;;5071906;28;20273;-46
2022/05/13 11:58:58;;;;;;;;;;;19.90;53.90;;;;;;5119967;28;19954;-45
2022/05/13 12:01:36;;;;;;;;;;;20.80;56.00;;;;;;5119791;28;19927;-49
2022/05/13 12:04:22;;;;;;;;;;;21.70;54.20;;;;;;5125391;28;19931;-46
2022/05/13 12:06:50;;;;;;;;;;;20.80;53.90;;;;;;5120128;28;19924;-45
2022/05/13 12:09:30;;;;;;;;;;;20.20;53.40;;;;;;5118461;28;20199;-49
2022/05/13 12:12:10;;;;;;;;;;;19.80;53.30;;;;;;5123183;28;20017;-45
2022/05/13 12:14:50;;;;;;;;;;;19.90;54.50;;;;;;5119305;28;19927;-46
2022/05/13 12:17:41;;;;;;;;;;;21.00;55.60;;;;;;5100820;28;19930;-46
2022/05/13 12:20:11;;;;;;;;;;;21.80;53.80;;;;;;5107064;28;20286;-47
2022/05/13 12:22:40;;;;;;;;;;;20.60;53.90;;;;;;5101162;28;19927;-48
2022/05/13 12:25:05;;;;;;;;;;;20.10;53.40;;;;;;5104982;28;19924;-47
2022/05/13 12:27:37;;;;;;;;;;;19.90;52.90;;;;;;5127300;28;19941;-47
2022/05/13 12:30:07;;;;;;;;;;;20.60;55.80;;;;;;5121057;28;19934;-46
2022/05/13 12:32:37;;;;;;;;;;;21.60;54.20;;;;;;5087346;28;19980;-45
2022/05/13 12:37:47;;;;;;;;;;;20.40;53.70;;;;;;5106465;28;20375;-46
2022/05/13 12:40:19;;;;;;;;;;;20.00;53.40;;;;;;5122849;28;20108;-46
2022/05/13 12:42:49;;;;;;;;;;;19.80;52.60;;;;;;5128502;28;20347;-47
2022/05/13 12:45:18;;;;;;;;;;;20.20;54.50;;;;;;5122452;28;19927;-47
2022/05/13 12:48:02;;;;;;;;;;;21.10;55.10;;;;;;5120137;28;19966;-51
2022/05/13 12:50:29;;;;;;;;;;;21.80;53.10;;;;;;5127282;28;20018;-45
2022/05/13 12:52:55;;;;;;;;;;;20.60;53.70;;;;;;5122391;28;20015;-48
2022/05/13 12:55:24;;;;;;;;;;;20.20;53.20;;;;;;5124509;28;19927;-52
2022/05/13 12:57:51;;;;;;;;;;;19.90;53.00;;;;;;5109199;28;20002;-45
2022/05/13 13:00:24;;;;;;;;;;;19.80;52.20;;;;;;5122548;28;19931;-46
2022/05/13 13:02:51;;;;;;;;;;;20.50;55.80;;;;;;5092783;28;20327;-49
2022/05/13 13:05:25;;;;;;;;;;;21.50;54.30;;;;;;5101357;28;19923;-50
2022/05/13 13:07:54;;;;;;;;;;;21.50;53.00;;;;;;5102352;28;20314;-46
2022/05/13 13:10:22;;;;;;;;;;;20.50;53.30;;;;;;5108928;28;19975;-48
2022/05/13 13:12:56;;;;;;;;;;;20.20;52.70;;;;;;5122376;28;20382;-45
2022/05/13 13:15:33;;;;;;;;;;;20.00;51.90;;;;;;5103747;28;19959;-48
2022/05/13 13:17:59;;;;;;;;;;;20.20;54.50;;;;;;5127558;28;20010;-44
2022/05/13 13:20:26;;;;;;;;;;;21.30;54.70;;;;;;5122390;28;19927;-44
2022/05/13 13:22:55;;;;;;;;;;;21.90;52.80;;;;;;5102539;28;19934;-47
2022/05/13 13:25:25;;;;;;;;;;;20.80;53.40;;;;;;5107301;28;19923;-47
2022/05/13 13:28:01;;;;;;;;;;;20.30;52.60;;;;;;5121862;28;19953;-44
2022/05/13 13:30:27;;;;;;;;;;;20.00;52.20;;;;;;5104014;28;19924;-46
2022/05/13 13:32:53;;;;;;;;;;;20.00;51.60;;;;;;5125146;27;20385;-44
2022/05/13 13:35:27;;;;;;;;;;;20.50;54.70;;;;;;5102685;28;20081;-45
2022/05/13 13:37:53;;;;;;;;;;;21.40;53.60;;;;;;5124809;28;20370;-54
2022/05/13 13:40:21;;;;;;;;;;;21.70;52.30;;;;;;5124730;28;20043;-45
2022/05/13 13:42:47;;;;;;;;;;;20.70;52.80;;;;;;5119062;28;19923;-48
2022/05/13 13:45:14;;;;;;;;;;;20.30;52.60;;;;;;5126338;28;19972;-46
2022/05/13 13:47:43;;;;;;;;;;;20.00;52.10;;;;;;5121643;28;19996;-47
2022/05/13 13:50:10;;;;;;;;;;;20.20;53.80;;;;;;5121853;28;19923;-48
2022/05/13 13:52:39;;;;;;;;;;;21.20;53.60;;;;;;5127181;28;19975;-45
2022/05/13 13:55:06;;;;;;;;;;;21.80;51.60;;;;;;5103675;28;20015;-48
2022/05/13 13:57:51;;;;;;;;;;;20.60;52.70;;;;;;5102356;28;19935;-45
2022/05/13 14:00:21;;;;;;;;;;;20.20;52.30;;;;;;5124798;28;20022;-44
2022/05/13 14:02:48;;;;;;;;;;;20.00;51.50;;;;;;5120084;28;20340;-45
2022/05/13 14:05:17;;;;;;;;;;;20.00;53.00;;;;;;5121237;28;19924;-46
2022/05/13 14:07:44;;;;;;;;;;;21.00;53.40;;;;;;5127041;28;19973;-46
2022/05/13 14:10:10;;;;;;;;;;;21.80;51.30;;;;;;5121490;28;19923;-44
2022/05/13 14:12:36;;;;;;;;;;;21.00;51.70;;;;;;5107511;28;19924;-45
2022/05/13 14:15:03;;;;;;;;;;;20.40;51.60;;;;;;5121741;28;19931;-50
2022/05/13 14:17:29;;;;;;;;;;;20.10;51.60;;;;;;5120713;28;19971;-52
2022/05/13 14:20:01;;;;;;;;;;;20.00;52.10;;;;;;5124246;28;19931;-45
2022/05/13 14:22:26;;;;;;;;;;;20.80;53.50;;;;;;5120305;28;19930;-48
2022/05/13 14:25:05;;;;;;;;;;;21.80;51.30;;;;;;5121040;28;19927;-45
2022/05/13 14:27:31;;;;;;;;;;;21.00;51.40;;;;;;5126730;28;20014;-44
2022/05/13 14:29:58;;;;;;;;;;;20.30;51.70;;;;;;5120973;28;20030;-47
2022/05/13 14:32:29;;;;;;;;;;;20.00;51.50;;;;;;5121271;28;20353;-47
2022/05/13 14:35:06;;;;;;;;;;;20.00;50.90;;;;;;5108375;28;20448;-47
2022/05/13 14:37:33;;;;;;;;;;;20.40;53.10;;;;;;5117966;28;19929;-45
2022/05/13 14:39:59;;;;;;;;;;;21.50;51.50;;;;;;5119867;28;19930;-44
2022/05/13 14:42:48;;;;;;;;;;;21.60;50.40;;;;;;5107564;28;19923;-45
2022/05/13 14:45:29;;;;;;;;;;;20.70;51.20;;;;;;5120740;27;20321;-45
2022/05/13 14:48:14;;;;;;;;;;;20.20;51.20;;;;;;5120716;28;19984;-48
2022/05/13 14:50:40;;;;;;;;;;;19.90;51.00;;;;;;5126333;28;19923;-45
2022/05/13 14:53:17;;;;;;;;;;;20.30;52.70;;;;;;5120850;28;20422;-44
2022/05/13 14:55:52;;;;;;;;;;;21.30;51.50;;;;;;5118162;28;20599;-46
2022/05/13 14:58:41;;;;;;;;;;;21.70;49.80;;;;;;5125142;28;19935;-46
2022/05/13 15:01:19;;;;;;;;;;;20.60;50.90;;;;;;5106950;28;20319;-46